sensor_id;sensor_type;location;lat;lon;timestamp;pressure;altitude;pressure_sealevel;temperature;humidity
82728;BME280;72459;50.110;8.750;2023-10-13T00:01:07;100575.50;;;15.69;87.24
82728;BME280;72459;50.110;8.750;2023-10-13T00:03:33;100567.53;;;15.69;87.43
82728;BME280;72459;50.110;8.750;2023-10-13T00:05:59;100567.53;;;15.67;87.57
82728;BME280;72459;50.110;8.750;2023-10-13T00:08:28;100573.59;;;15.62;87.92
82728;BME280;72459;50.110;8.750;2023-10-13T00:10:55;100570.06;;;15.63;87.82
82728;BME280;72459;50.110;8.750;2023-10-13T00:13:28;100576.25;;;15.62;86.98
82728;BME280;72459;50.110;8.750;2023-10-13T00:15:57;100578.91;;;15.63;87.23
82728;BME280;72459;50.110;8.750;2023-10-13T00:18:27;100579.00;;;15.68;87.50
82728;BME280;72459;50.110;8.750;2023-10-13T00:20:58;100577.31;;;15.71;87.17
82728;BME280;72459;50.110;8.750;2023-10-13T00:23:24;100587.06;;;15.74;87.51
82728;BME280;72459;50.110;8.750;2023-10-13T00:25:52;100574.69;;;15.73;88.08
82728;BME280;72459;50.110;8.750;2023-10-13T00:28:28;100577.34;;;15.73;87.32
82728;BME280;72459;50.110;8.750;2023-10-13T00:31:01;100577.38;;;15.74;87.65
82728;BME280;72459;50.110;8.750;2023-10-13T00:33:36;100573.81;;;15.74;87.61
82728;BME280;72459;50.110;8.750;2023-10-13T00:36:03;100570.28;;;15.73;87.62
82728;BME280;72459;50.110;8.750;2023-10-13T00:38:30;100562.38;;;15.75;87.24
82728;BME280;72459;50.110;8.750;2023-10-13T00:40:55;100561.47;;;15.74;87.26
82728;BME280;72459;50.110;8.750;2023-10-13T00:43:22;100558.78;;;15.73;86.83
82728;BME280;72459;50.110;8.750;2023-10-13T00:45:59;100570.28;;;15.73;87.66
82728;BME280;72459;50.110;8.750;2023-10-13T00:48:31;100564.97;;;15.72;87.42
82728;BME280;72459;50.110;8.750;2023-10-13T00:51:06;100566.72;;;15.71;87.17
82728;BME280;72459;50.110;8.750;2023-10-13T00:53:34;100565.84;;;15.72;87.31
82728;BME280;72459;50.110;8.750;2023-10-13T00:56:02;100569.38;;;15.73;88.24
82728;BME280;72459;50.110;8.750;2023-10-13T00:58:43;100567.66;;;15.75;87.76
82728;BME280;72459;50.110;8.750;2023-10-13T01:01:08;100567.69;;;15.76;87.72
82728;BME280;72459;50.110;8.750;2023-10-13T01:03:45;100564.19;;;15.79;88.07
82728;BME280;72459;50.110;8.750;2023-10-13T01:06:17;100567.78;;;15.81;86.95
82728;BME280;72459;50.110;8.750;2023-10-13T01:08:45;100550.16;;;15.83;87.36
82728;BME280;72459;50.110;8.750;2023-10-13T01:11:16;100553.72;;;15.85;87.11
82728;BME280;72459;50.110;8.750;2023-10-13T01:13:41;100547.53;;;15.84;87.20
82728;BME280;72459;50.110;8.750;2023-10-13T01:16:07;100541.31;;;15.84;87.55
82728;BME280;72459;50.110;8.750;2023-10-13T01:18:33;100536.91;;;15.84;87.22
82728;BME280;72459;50.110;8.750;2023-10-13T01:21:05;100530.66;;;15.81;88.01
82728;BME280;72459;50.110;8.750;2023-10-13T01:23:31;100531.53;;;15.80;87.16
82728;BME280;72459;50.110;8.750;2023-10-13T01:26:03;100523.56;;;15.78;87.72
82728;BME280;72459;50.110;8.750;2023-10-13T01:28:31;100524.41;;;15.76;87.01
82728;BME280;72459;50.110;8.750;2023-10-13T01:31:10;100533.25;;;15.76;88.07
82728;BME280;72459;50.110;8.750;2023-10-13T01:33:37;100527.03;;;15.76;87.06
82728;BME280;72459;50.110;8.750;2023-10-13T01:36:03;100530.56;;;15.75;88.06
82728;BME280;72459;50.110;8.750;2023-10-13T01:38:32;100532.28;;;15.73;87.84
82728;BME280;72459;50.110;8.750;2023-10-13T01:40:59;100535.84;;;15.73;87.51
82728;BME280;72459;50.110;8.750;2023-10-13T01:43:24;100539.38;;;15.74;87.04
82728;BME280;72459;50.110;8.750;2023-10-13T01:45:50;100536.69;;;15.72;87.87
82728;BME280;72459;50.110;8.750;2023-10-13T01:48:16;100539.38;;;15.74;87.18
82728;BME280;72459;50.110;8.750;2023-10-13T01:50:45;100529.69;;;15.76;87.23
82728;BME280;72459;50.110;8.750;2023-10-13T01:53:19;100532.38;;;15.77;87.01
82728;BME280;72459;50.110;8.750;2023-10-13T01:55:45;100523.53;;;15.77;87.18
82728;BME280;72459;50.110;8.750;2023-10-13T01:58:12;100523.50;;;15.75;86.80
82728;BME280;72459;50.110;8.750;2023-10-13T02:00:45;100512.94;;;15.77;87.33
82728;BME280;72459;50.110;8.750;2023-10-13T02:03:13;100496.16;;;15.78;86.91
82728;BME280;72459;50.110;8.750;2023-10-13T02:05:46;100495.31;;;15.79;87.50
82728;BME280;72459;50.110;8.750;2023-10-13T02:08:21;100496.16;;;15.78;87.99
82728;BME280;72459;50.110;8.750;2023-10-13T02:10:53;100501.50;;;15.79;87.45
82728;BME280;72459;50.110;8.750;2023-10-13T02:13:19;100497.91;;;15.76;87.51
82728;BME280;72459;50.110;8.750;2023-10-13T02:15:47;100493.47;;;15.75;87.03
82728;BME280;72459;50.110;8.750;2023-10-13T02:18:19;100486.38;;;15.74;87.59
82728;BME280;72459;50.110;8.750;2023-10-13T02:21:03;100494.34;;;15.75;86.96
82728;BME280;72459;50.110;8.750;2023-10-13T02:23:30;100491.72;;;15.77;87.69
82728;BME280;72459;50.110;8.750;2023-10-13T02:26:01;100493.53;;;15.79;87.49
82728;BME280;72459;50.110;8.750;2023-10-13T02:28:35;100498.03;;;15.83;87.36
82728;BME280;72459;50.110;8.750;2023-10-13T02:31:03;100483.03;;;15.84;87.08
82728;BME280;72459;50.110;8.750;2023-10-13T02:33:30;100483.91;;;15.84;87.02
82728;BME280;72459;50.110;8.750;2023-10-13T02:36:01;100485.63;;;15.81;87.47
82728;BME280;72459;50.110;8.750;2023-10-13T02:38:30;100482.97;;;15.81;87.35
82728;BME280;72459;50.110;8.750;2023-10-13T02:41:02;100464.47;;;15.84;87.02
82728;BME280;72459;50.110;8.750;2023-10-13T02:43:35;100455.66;;;15.85;86.73
82728;BME280;72459;50.110;8.750;2023-10-13T02:46:01;100458.28;;;15.85;87.17
82728;BME280;72459;50.110;8.750;2023-10-13T02:48:27;100449.44;;;15.84;87.52
82728;BME280;72459;50.110;8.750;2023-10-13T02:51:04;100443.22;;;15.82;87.38
82728;BME280;72459;50.110;8.750;2023-10-13T02:53:33;100437.03;;;15.82;86.65
82728;BME280;72459;50.110;8.750;2023-10-13T02:55:58;100435.25;;;15.81;87.03
82728;BME280;72459;50.110;8.750;2023-10-13T02:58:32;100429.88;;;15.76;87.12
82728;BME280;72459;50.110;8.750;2023-10-13T03:01:07;100440.41;;;15.72;87.34
82728;BME280;72459;50.110;8.750;2023-10-13T03:03:56;100437.75;;;15.72;86.94
82728;BME280;72459;50.110;8.750;2023-10-13T03:06:23;100444.81;;;15.71;87.80
82728;BME280;72459;50.110;8.750;2023-10-13T03:08:57;100440.41;;;15.72;87.86
82728;BME280;72459;50.110;8.750;2023-10-13T03:11:22;100435.97;;;15.71;87.01
82728;BME280;72459;50.110;8.750;2023-10-13T03:13:49;100436.91;;;15.73;87.25
82728;BME280;72459;50.110;8.750;2023-10-13T03:16:17;100429.84;;;15.73;87.47
82728;BME280;72459;50.110;8.750;2023-10-13T03:18:47;100423.72;;;15.77;87.19
82728;BME280;72459;50.110;8.750;2023-10-13T03:21:21;100421.03;;;15.76;86.96
82728;BME280;72459;50.110;8.750;2023-10-13T03:23:59;100415.75;;;15.76;86.77
82728;BME280;72459;50.110;8.750;2023-10-13T03:26:33;100414.00;;;15.76;87.85
82728;BME280;72459;50.110;8.750;2023-10-13T03:29:05;100421.03;;;15.76;87.37
82728;BME280;72459;50.110;8.750;2023-10-13T03:31:46;100421.03;;;15.76;86.92
82728;BME280;72459;50.110;8.750;2023-10-13T03:34:11;100418.41;;;15.76;87.62
82728;BME280;72459;50.110;8.750;2023-10-13T03:36:37;100421.03;;;15.76;88.09
82728;BME280;72459;50.110;8.750;2023-10-13T03:39:29;100425.44;;;15.75;88.54
82728;BME280;72459;50.110;8.750;2023-10-13T03:41:57;100420.09;;;15.72;87.00
82728;BME280;72459;50.110;8.750;2023-10-13T03:44:23;100412.97;;;15.68;87.18
82728;BME280;72459;50.110;8.750;2023-10-13T03:46:49;100421.72;;;15.64;86.81
82728;BME280;72459;50.110;8.750;2023-10-13T03:49:17;100411.97;;;15.62;86.70
82728;BME280;72459;50.110;8.750;2023-10-13T03:51:49;100412.78;;;15.59;86.61
82728;BME280;72459;50.110;8.750;2023-10-13T03:54:16;100411.91;;;15.59;86.79
82728;BME280;72459;50.110;8.750;2023-10-13T03:56:42;100405.63;;;15.57;87.28
82728;BME280;72459;50.110;8.750;2023-10-13T03:59:10;100403.88;;;15.57;87.90
82728;BME280;72459;50.110;8.750;2023-10-13T04:01:49;100400.34;;;15.57;86.98
82728;BME280;72459;50.110;8.750;2023-10-13T04:04:20;100396.88;;;15.58;88.35
82728;BME280;72459;50.110;8.750;2023-10-13T04:07:04;100389.81;;;15.58;87.23
82728;BME280;72459;50.110;8.750;2023-10-13T04:09:30;100393.34;;;15.59;87.20
82728;BME280;72459;50.110;8.750;2023-10-13T04:12:06;100394.25;;;15.59;87.64
82728;BME280;72459;50.110;8.750;2023-10-13T04:14:43;100387.19;;;15.60;87.23
82728;BME280;72459;50.110;8.750;2023-10-13T04:17:24;100392.47;;;15.60;86.74
82728;BME280;72459;50.110;8.750;2023-10-13T04:19:54;100389.03;;;15.62;86.86
82728;BME280;72459;50.110;8.750;2023-10-13T04:22:32;100389.06;;;15.64;87.68
82728;BME280;72459;50.110;8.750;2023-10-13T04:27:57;100376.72;;;15.66;87.14
82728;BME280;72459;50.110;8.750;2023-10-13T04:33:18;100372.19;;;15.60;87.30
82728;BME280;72459;50.110;8.750;2023-10-13T04:36:14;100367.81;;;15.61;87.35
82728;BME280;72459;50.110;8.750;2023-10-13T04:38:44;100372.22;;;15.62;88.17
82728;BME280;72459;50.110;8.750;2023-10-13T04:41:35;100367.81;;;15.61;88.09
82728;BME280;72459;50.110;8.750;2023-10-13T04:44:06;100372.22;;;15.62;87.43
82728;BME280;72459;50.110;8.750;2023-10-13T04:46:50;100373.16;;;15.64;87.47
82728;BME280;72459;50.110;8.750;2023-10-13T04:49:15;100376.72;;;15.66;87.55
82728;BME280;72459;50.110;8.750;2023-10-13T04:52:01;100371.47;;;15.69;86.92
82728;BME280;72459;50.110;8.750;2023-10-13T04:54:36;100363.56;;;15.72;87.55
82728;BME280;72459;50.110;8.750;2023-10-13T04:57:24;100365.38;;;15.74;87.18
82728;BME280;72459;50.110;8.750;2023-10-13T05:00:05;100353.00;;;15.73;87.42
82728;BME280;72459;50.110;8.750;2023-10-13T05:02:40;100353.00;;;15.73;86.77
82728;BME280;72459;50.110;8.750;2023-10-13T05:05:13;100343.25;;;15.72;87.18
82728;BME280;72459;50.110;8.750;2023-10-13T05:07:50;100345.88;;;15.71;87.60
82728;BME280;72459;50.110;8.750;2023-10-13T05:10:35;100345.88;;;15.69;86.71
82728;BME280;72459;50.110;8.750;2023-10-13T05:13:19;100344.97;;;15.69;87.47
82728;BME280;72459;50.110;8.750;2023-10-13T05:16:03;100352.97;;;15.72;87.56
82728;BME280;72459;50.110;8.750;2023-10-13T05:18:47;100343.22;;;15.71;87.17
82728;BME280;72459;50.110;8.750;2023-10-13T05:21:31;100332.63;;;15.71;87.21
82728;BME280;72459;50.110;8.750;2023-10-13T05:24:15;100329.94;;;15.68;86.63
82728;BME280;72459;50.110;8.750;2023-10-13T05:26:59;100340.50;;;15.66;87.72
82728;BME280;72459;50.110;8.750;2023-10-13T05:29:45;100334.31;;;15.66;87.31
82728;BME280;72459;50.110;8.750;2023-10-13T05:32:29;100333.44;;;15.65;86.78
82728;BME280;72459;50.110;8.750;2023-10-13T05:35:14;100340.50;;;15.66;87.17
82728;BME280;72459;50.110;8.750;2023-10-13T05:37:59;100341.41;;;15.67;87.46
82728;BME280;72459;50.110;8.750;2023-10-13T05:40:59;100334.38;;;15.69;87.24
82728;BME280;72459;50.110;8.750;2023-10-13T05:43:44;100326.38;;;15.66;87.77
82728;BME280;72459;50.110;8.750;2023-10-13T05:46:28;100324.63;;;15.68;87.48
82728;BME280;72459;50.110;8.750;2023-10-13T05:49:04;100336.09;;;15.67;87.12
82728;BME280;72459;50.110;8.750;2023-10-13T05:51:43;100332.59;;;15.68;87.18
82728;BME280;72459;50.110;8.750;2023-10-13T05:54:09;100338.78;;;15.68;87.15
82728;BME280;72459;50.110;8.750;2023-10-13T05:56:38;100337.88;;;15.68;87.31
82728;BME280;72459;50.110;8.750;2023-10-13T05:59:22;100335.25;;;15.69;87.27
82728;BME280;72459;50.110;8.750;2023-10-13T06:02:06;100337.94;;;15.71;86.79
82728;BME280;72459;50.110;8.750;2023-10-13T06:04:50;100339.75;;;15.75;86.55
82728;BME280;72459;50.110;8.750;2023-10-13T06:07:34;100330.94;;;15.76;86.84
82728;BME280;72459;50.110;8.750;2023-10-13T06:10:18;100334.50;;;15.78;87.47
82728;BME280;72459;50.110;8.750;2023-10-13T06:13:02;100331.03;;;15.82;87.34
82728;BME280;72459;50.110;8.750;2023-10-13T06:15:46;100332.81;;;15.83;86.83
82728;BME280;72459;50.110;8.750;2023-10-13T06:18:30;100334.59;;;15.84;86.82
82728;BME280;72459;50.110;8.750;2023-10-13T06:21:14;100339.94;;;15.87;87.10
82728;BME280;72459;50.110;8.750;2023-10-13T06:23:58;100340.91;;;15.92;87.60
82728;BME280;72459;50.110;8.750;2023-10-13T06:26:42;100341.00;;;16.00;86.88
82728;BME280;72459;50.110;8.750;2023-10-13T06:29:27;100341.13;;;16.07;87.02
82728;BME280;72459;50.110;8.750;2023-10-13T06:31:52;100337.69;;;16.16;86.80
82728;BME280;72459;50.110;8.750;2023-10-13T06:34:22;100335.13;;;16.24;86.81
82728;BME280;72459;50.110;8.750;2023-10-13T06:37:06;100335.31;;;16.34;86.44
82728;BME280;72459;50.110;8.750;2023-10-13T06:39:51;100338.94;;;16.41;86.46
82728;BME280;72459;50.110;8.750;2023-10-13T06:42:17;100332.84;;;16.49;86.81
82728;BME280;72459;50.110;8.750;2023-10-13T06:44:47;100332.00;;;16.52;86.15
82728;BME280;72459;50.110;8.750;2023-10-13T06:47:13;100338.28;;;16.60;86.27
82728;BME280;72459;50.110;8.750;2023-10-13T06:49:41;100332.25;;;16.73;86.25
82728;BME280;72459;50.110;8.750;2023-10-13T06:52:09;100337.63;;;16.79;85.74
82728;BME280;72459;50.110;8.750;2023-10-13T06:54:35;100336.00;;;16.91;85.53
82728;BME280;72459;50.110;8.750;2023-10-13T06:57:01;100344.03;;;16.95;84.86
82728;BME280;72459;50.110;8.750;2023-10-13T06:59:29;100341.38;;;16.95;83.71
82728;BME280;72459;50.110;8.750;2023-10-13T07:01:58;100350.31;;;17.03;84.97
82728;BME280;72459;50.110;8.750;2023-10-13T07:04:29;100351.28;;;17.13;85.88
82728;BME280;72459;50.110;8.750;2023-10-13T07:06:54;100342.47;;;17.19;85.65
82728;BME280;72459;50.110;8.750;2023-10-13T07:09:20;100343.31;;;17.13;82.18
82728;BME280;72459;50.110;8.750;2023-10-13T07:12:15;100346.88;;;17.15;80.63
82728;BME280;72459;50.110;8.750;2023-10-13T07:14:58;100352.28;;;17.24;83.84
82728;BME280;72459;50.110;8.750;2023-10-13T07:17:44;100350.56;;;17.32;84.42
82728;BME280;72459;50.110;8.750;2023-10-13T07:20:10;100344.41;;;17.36;83.18
82728;BME280;72459;50.110;8.750;2023-10-13T07:23:02;100345.34;;;17.41;83.39
82728;BME280;72459;50.110;8.750;2023-10-13T07:25:32;100340.06;;;17.48;84.58
82728;BME280;72459;50.110;8.750;2023-10-13T07:28:02;100340.06;;;17.46;84.54
82728;BME280;72459;50.110;8.750;2023-10-13T07:30:35;100334.78;;;17.49;84.32
82728;BME280;72459;50.110;8.750;2023-10-13T07:33:18;100336.47;;;17.39;81.68
82728;BME280;72459;50.110;8.750;2023-10-13T07:35:48;100341.81;;;17.42;84.01
82728;BME280;72459;50.110;8.750;2023-10-13T07:38:19;100336.50;;;17.46;83.19
82728;BME280;72459;50.110;8.750;2023-10-13T07:40:46;100330.38;;;17.53;83.75
82728;BME280;72459;50.110;8.750;2023-10-13T07:43:16;100335.75;;;17.57;81.52
82728;BME280;72459;50.110;8.750;2023-10-13T07:45:46;100331.38;;;17.64;79.42
82728;BME280;72459;50.110;8.750;2023-10-13T07:48:15;100335.06;;;17.81;82.98
82728;BME280;72459;50.110;8.750;2023-10-13T07:50:57;100327.16;;;17.92;79.91
82728;BME280;72459;50.110;8.750;2023-10-13T07:53:23;100326.34;;;18.03;81.59
82728;BME280;72459;50.110;8.750;2023-10-13T07:55:49;100330.84;;;18.20;81.14
82728;BME280;72459;50.110;8.750;2023-10-13T07:58:22;100328.25;;;18.27;79.42
82728;BME280;72459;50.110;8.750;2023-10-13T08:00:51;100329.16;;;18.29;80.45
82728;BME280;72459;50.110;8.750;2023-10-13T08:03:35;100321.19;;;18.34;75.09
82728;BME280;72459;50.110;8.750;2023-10-13T08:06:11;100326.69;;;18.71;79.84
82728;BME280;72459;50.110;8.750;2023-10-13T08:08:37;100317.78;;;18.68;77.59
82728;BME280;72459;50.110;8.750;2023-10-13T08:11:10;100310.78;;;18.99;79.30
82728;BME280;72459;50.110;8.750;2023-10-13T08:13:58;100312.59;;;19.23;81.35
82728;BME280;72459;50.110;8.750;2023-10-13T08:16:29;100307.25;;;19.36;74.39
82728;BME280;72459;50.110;8.750;2023-10-13T08:19:24;100310.81;;;19.25;73.54
82728;BME280;72459;50.110;8.750;2023-10-13T08:21:56;100307.28;;;19.63;80.07
82728;BME280;72459;50.110;8.750;2023-10-13T08:24:25;100320.59;;;19.84;78.75
82728;BME280;72459;50.110;8.750;2023-10-13T08:26:55;100317.88;;;20.06;79.36
82728;BME280;72459;50.110;8.750;2023-10-13T08:29:40;100321.41;;;20.11;75.62
82728;BME280;72459;50.110;8.750;2023-10-13T08:32:14;100317.00;;;20.04;71.06
82728;BME280;72459;50.110;8.750;2023-10-13T08:34:40;100312.53;;;20.18;77.07
82728;BME280;72459;50.110;8.750;2023-10-13T08:37:08;100316.06;;;20.11;76.12
82728;BME280;72459;50.110;8.750;2023-10-13T08:39:58;100305.44;;;19.99;70.54
82728;BME280;72459;50.110;8.750;2023-10-13T08:47:34;100285.81;;;20.22;75.42
82728;BME280;72459;50.110;8.750;2023-10-13T08:50:02;100273.38;;;20.20;69.99
82728;BME280;72459;50.110;8.750;2023-10-13T08:52:47;100264.44;;;20.27;73.83
82728;BME280;72459;50.110;8.750;2023-10-13T08:55:14;100277.75;;;20.41;75.51
82728;BME280;72459;50.110;8.750;2023-10-13T08:58:18;100267.03;;;20.51;68.94
82728;BME280;72459;50.110;8.750;2023-10-13T09:00:50;100277.69;;;20.51;66.43
82728;BME280;72459;50.110;8.750;2023-10-13T09:03:21;100270.41;;;20.78;73.54
82728;BME280;72459;50.110;8.750;2023-10-13T09:06:16;100262.53;;;20.60;63.20
82728;BME280;72459;50.110;8.750;2023-10-13T09:08:45;100262.56;;;20.50;63.80
82728;BME280;72459;50.110;8.750;2023-10-13T09:11:33;100253.56;;;20.70;71.75
82728;BME280;72459;50.110;8.750;2023-10-13T09:14:14;100252.81;;;20.43;68.76
82728;BME280;72459;50.110;8.750;2023-10-13T09:17:07;100242.13;;;20.48;66.08
82728;BME280;72459;50.110;8.750;2023-10-13T09:19:50;100223.41;;;20.54;69.99
82728;BME280;72459;50.110;8.750;2023-10-13T09:22:25;100225.16;;;20.55;70.86
82728;BME280;72459;50.110;8.750;2023-10-13T09:24:57;100210.09;;;20.46;66.56
82728;BME280;72459;50.110;8.750;2023-10-13T09:27:33;100201.97;;;20.62;73.58
82728;BME280;72459;50.110;8.750;2023-10-13T09:30:03;100216.19;;;20.67;69.31
82728;BME280;72459;50.110;8.750;2023-10-13T09:33:00;100226.84;;;20.70;63.45
82728;BME280;72459;50.110;8.750;2023-10-13T09:35:47;100232.13;;;20.85;64.51
82728;BME280;72459;50.110;8.750;2023-10-13T09:38:16;100227.56;;;20.98;64.06
82728;BME280;72459;50.110;8.750;2023-10-13T09:40:43;100225.81;;;20.94;71.39
82728;BME280;72459;50.110;8.750;2023-10-13T09:43:16;100223.06;;;21.03;64.76
82728;BME280;72459;50.110;8.750;2023-10-13T09:45:43;100221.00;;;21.37;61.74
82728;BME280;72459;50.110;8.750;2023-10-13T09:48:32;100211.81;;;21.65;65.02
82728;BME280;72459;50.110;8.750;2023-10-13T09:51:03;100216.16;;;21.74;63.23
82728;BME280;72459;50.110;8.750;2023-10-13T09:53:34;100220.91;;;21.49;66.06
82728;BME280;72459;50.110;8.750;2023-10-13T09:58:46;100219.38;;;21.17;67.88
82728;BME280;72459;50.110;8.750;2023-10-13T10:01:17;100215.84;;;21.12;66.22
82728;BME280;72459;50.110;8.750;2023-10-13T10:03:47;100213.19;;;21.09;60.32
82728;BME280;72459;50.110;8.750;2023-10-13T10:06:23;100204.16;;;21.29;65.94
82728;BME280;72459;50.110;8.750;2023-10-13T10:09:08;100205.75;;;21.48;61.72
82728;BME280;72459;50.110;8.750;2023-10-13T10:12:01;100205.56;;;21.66;65.63
82728;BME280;72459;50.110;8.750;2023-10-13T10:17:55;100201.94;;;21.70;64.76
82728;BME280;72459;50.110;8.750;2023-10-13T10:20:41;100213.38;;;21.84;64.66
82728;BME280;72459;50.110;8.750;2023-10-13T10:23:07;100208.69;;;22.02;61.96
82728;BME280;72459;50.110;8.750;2023-10-13T10:25:38;100209.47;;;22.16;62.25
82728;BME280;72459;50.110;8.750;2023-10-13T10:28:07;100203.22;;;22.16;58.51
82728;BME280;72459;50.110;8.750;2023-10-13T10:30:37;100214.47;;;22.40;62.60
82728;BME280;72459;50.110;8.750;2023-10-13T10:33:08;100211.59;;;22.54;57.04
82728;BME280;72459;50.110;8.750;2023-10-13T10:35:45;100209.56;;;22.70;61.71
82728;BME280;72459;50.110;8.750;2023-10-13T10:38:18;100209.84;;;23.12;58.21
82728;BME280;72459;50.110;8.750;2023-10-13T10:40:59;100204.88;;;23.41;62.84
82728;BME280;72459;50.110;8.750;2023-10-13T10:43:27;100192.00;;;23.61;57.13
82728;BME280;72459;50.110;8.750;2023-10-13T10:45:55;100193.09;;;23.50;53.00
82728;BME280;72459;50.110;8.750;2023-10-13T10:48:27;100174.44;;;23.44;51.91
82728;BME280;72459;50.110;8.750;2023-10-13T10:51:00;100174.25;;;23.53;54.06
82728;BME280;72459;50.110;8.750;2023-10-13T10:53:31;100181.78;;;23.31;56.72
82728;BME280;72459;50.110;8.750;2023-10-13T10:56:12;100169.16;;;23.36;55.91
82728;BME280;72459;50.110;8.750;2023-10-13T10:58:53;100162.75;;;23.46;57.93
82728;BME280;72459;50.110;8.750;2023-10-13T11:01:23;100155.81;;;23.33;51.90
82728;BME280;72459;50.110;8.750;2023-10-13T11:06:27;100162.91;;;23.35;53.16
82728;BME280;72459;50.110;8.750;2023-10-13T11:09:04;100154.06;;;23.32;54.77
82728;BME280;72459;50.110;8.750;2023-10-13T11:11:51;100147.84;;;23.28;53.47
82728;BME280;72459;50.110;8.750;2023-10-13T11:14:28;100127.31;;;23.27;57.40
82728;BME280;72459;50.110;8.750;2023-10-13T11:16:56;100133.69;;;23.22;53.52
82728;BME280;72459;50.110;8.750;2023-10-13T11:19:42;100131.19;;;23.13;57.35
82728;BME280;72459;50.110;8.750;2023-10-13T11:22:15;100123.41;;;22.97;56.61
82728;BME280;72459;50.110;8.750;2023-10-13T11:25:03;100128.00;;;22.91;55.16
82728;BME280;72459;50.110;8.750;2023-10-13T11:27:41;100113.00;;;22.79;56.17
82728;BME280;72459;50.110;8.750;2023-10-13T11:30:12;100109.41;;;22.82;57.25
82728;BME280;72459;50.110;8.750;2023-10-13T11:32:41;100098.84;;;22.69;55.46
82728;BME280;72459;50.110;8.750;2023-10-13T11:35:09;100100.66;;;22.67;57.13
82728;BME280;72459;50.110;8.750;2023-10-13T11:37:46;100092.50;;;22.73;58.71
82728;BME280;72459;50.110;8.750;2023-10-13T11:40:21;100086.97;;;22.87;55.69
82728;BME280;72459;50.110;8.750;2023-10-13T11:43:06;100083.19;;;22.99;56.64
82728;BME280;72459;50.110;8.750;2023-10-13T11:45:39;100082.91;;;23.13;59.72
82728;BME280;72459;50.110;8.750;2023-10-13T11:48:19;100073.03;;;23.15;58.91
82728;BME280;72459;50.110;8.750;2023-10-13T11:50:59;100079.88;;;23.31;59.44
82728;BME280;72459;50.110;8.750;2023-10-13T11:53:24;100060.75;;;23.49;55.02
82728;BME280;72459;50.110;8.750;2023-10-13T11:55:52;100062.19;;;23.67;58.16
82728;BME280;72459;50.110;8.750;2023-10-13T11:58:18;100068.09;;;23.83;56.26
82728;BME280;72459;50.110;8.750;2023-10-13T12:00:43;100072.84;;;24.10;55.21
82728;BME280;72459;50.110;8.750;2023-10-13T12:03:47;100072.13;;;24.42;58.53
82728;BME280;72459;50.110;8.750;2023-10-13T12:06:31;100065.84;;;24.42;57.77
82728;BME280;72459;50.110;8.750;2023-10-13T12:09:00;100063.47;;;24.29;51.92
82728;BME280;72459;50.110;8.750;2023-10-13T12:11:49;100061.75;;;24.25;50.80
82728;BME280;72459;50.110;8.750;2023-10-13T12:14:19;100054.78;;;24.17;52.82
82728;BME280;72459;50.110;8.750;2023-10-13T12:19:24;100052.56;;;24.36;58.52
82728;BME280;72459;50.110;8.750;2023-10-13T12:21:55;100052.75;;;24.28;49.85
82728;BME280;72459;50.110;8.750;2023-10-13T12:24:24;100045.66;;;24.24;52.62
82728;BME280;72459;50.110;8.750;2023-10-13T12:27:03;100042.66;;;24.38;53.79
82728;BME280;72459;50.110;8.750;2023-10-13T12:29:44;100047.03;;;24.42;55.45
82728;BME280;72459;50.110;8.750;2023-10-13T12:32:12;100033.69;;;24.39;53.66
82728;BME280;72459;50.110;8.750;2023-10-13T12:34:38;100031.00;;;24.39;50.35
82728;BME280;72459;50.110;8.750;2023-10-13T12:37:23;100036.09;;;24.49;51.04
82728;BME280;72459;50.110;8.750;2023-10-13T12:40:01;100025.88;;;24.63;52.64
82728;BME280;72459;50.110;8.750;2023-10-13T12:42:45;100018.13;;;24.51;49.11
82728;BME280;72459;50.110;8.750;2023-10-13T12:45:31;100026.41;;;24.44;48.08
82728;BME280;72459;50.110;8.750;2023-10-13T12:48:15;100025.06;;;24.24;57.08
82728;BME280;72459;50.110;8.750;2023-10-13T12:51:05;100018.09;;;24.17;55.97
82728;BME280;72459;50.110;8.750;2023-10-13T12:53:49;100010.97;;;24.15;55.74
82728;BME280;72459;50.110;8.750;2023-10-13T12:56:15;100001.84;;;24.22;55.58
82728;BME280;72459;50.110;8.750;2023-10-13T12:58:41;100003.72;;;24.18;50.35
82728;BME280;72459;50.110;8.750;2023-10-13T13:01:07;100000.88;;;24.24;55.55
82728;BME280;72459;50.110;8.750;2023-10-13T13:03:33;100002.63;;;24.28;51.95
82728;BME280;72459;50.110;8.750;2023-10-13T13:05:59;99998.34;;;24.18;53.54
82728;BME280;72459;50.110;8.750;2023-10-13T13:08:24;99993.91;;;24.17;53.37
82728;BME280;72459;50.110;8.750;2023-10-13T13:10:52;99993.13;;;24.12;54.15
82728;BME280;72459;50.110;8.750;2023-10-13T13:13:18;99997.59;;;24.13;56.79
82728;BME280;72459;50.110;8.750;2023-10-13T13:15:50;99978.78;;;24.13;52.58
82728;BME280;72459;50.110;8.750;2023-10-13T13:18:15;99978.47;;;24.25;56.67
82728;BME280;72459;50.110;8.750;2023-10-13T13:20:40;99978.28;;;24.34;51.61
82728;BME280;72459;50.110;8.750;2023-10-13T13:23:18;99978.72;;;24.52;56.17
82728;BME280;72459;50.110;8.750;2023-10-13T13:25:45;99976.41;;;24.72;55.05
82728;BME280;72459;50.110;8.750;2023-10-13T13:28:10;99972.03;;;25.01;55.59
82728;BME280;72459;50.110;8.750;2023-10-13T13:30:37;99972.25;;;25.24;56.64
82728;BME280;72459;50.110;8.750;2023-10-13T13:33:04;99960.06;;;25.42;55.82
82728;BME280;72459;50.110;8.750;2023-10-13T13:35:36;99958.03;;;25.50;54.07
82728;BME280;72459;50.110;8.750;2023-10-13T13:38:02;99955.53;;;25.44;50.79
82728;BME280;72459;50.110;8.750;2023-10-13T13:40:52;99952.16;;;25.37;50.15
82728;BME280;72459;50.110;8.750;2023-10-13T13:43:20;99940.94;;;25.51;52.86
82728;BME280;72459;50.110;8.750;2023-10-13T13:46:07;99947.06;;;25.56;47.63
82728;BME280;72459;50.110;8.750;2023-10-13T13:48:36;99943.03;;;25.71;53.75